Time;durP1;ratioP1;P1;durP2;ratioP2;P2;SDS_P1;SDS_P2;PMS_P1;PMS_P2;Temp;Humidity;BMP_temperature;BMP_pressure;BME280_temperature;BME280_humidity;BME280_pressure;Samples;Min_cycle;Max_cycle;Signal;HPM_P1;HPM_P2
2023/08/29 00:00:26;;;;;;;0.70;0.40;;;;;;;;;;6272421;28;20600;-78
2023/08/29 00:03:28;;;;;;;1.52;0.40;;;;;;;;;;6269778;28;20059;-75
2023/08/29 00:06:29;;;;;;;2.33;0.63;;;;;;;;;;6272587;28;20106;-76
2023/08/29 00:09:31;;;;;;;0.43;0.40;;;;;;;;;;6267356;28;20063;-76
2023/08/29 00:12:33;;;;;;;0.68;0.40;;;;;;;;;;6270994;28;20053;-76
2023/08/29 00:15:36;;;;;;;2.00;0.50;;;;;;;;;;6269747;28;20045;-75
2023/08/29 00:18:38;;;;;;;2.90;0.50;;;;;;;;;;6273354;28;20326;-77
2023/08/29 00:21:39;;;;;;;2.30;0.43;;;;;;;;;;6275558;28;20248;-77
2023/08/29 00:24:43;;;;;;;1.75;0.50;;;;;;;;;;6272498;28;20049;-76
2023/08/29 00:27:45;;;;;;;1.50;0.47;;;;;;;;;;6272036;28;20052;-76
2023/08/29 00:30:48;;;;;;;1.58;0.63;;;;;;;;;;6276097;28;20057;-76
2023/08/29 00:33:50;;;;;;;2.30;0.45;;;;;;;;;;6274890;28;20093;-77
2023/08/29 00:36:52;;;;;;;0.85;0.40;;;;;;;;;;6275549;28;20052;-76
2023/08/29 00:39:54;;;;;;;1.27;0.30;;;;;;;;;;6275457;28;20049;-75
2023/08/29 00:42:55;;;;;;;1.10;0.50;;;;;;;;;;6269976;28;20048;-75
2023/08/29 00:45:59;;;;;;;0.90;0.40;;;;;;;;;;6269406;28;20045;-75
2023/08/29 00:49:01;;;;;;;1.00;0.30;;;;;;;;;;6268717;28;20068;-76
2023/08/29 00:52:03;;;;;;;1.13;0.40;;;;;;;;;;6271352;28;20061;-75
2023/08/29 00:55:05;;;;;;;0.85;0.38;;;;;;;;;;6275345;28;20052;-76
2023/08/29 00:58:07;;;;;;;2.03;0.40;;;;;;;;;;6276359;28;20272;-76
2023/08/29 01:01:11;;;;;;;2.47;0.40;;;;;;;;;;6271326;28;20041;-75
2023/08/29 01:04:13;;;;;;;1.35;0.57;;;;;;;;;;6273326;28;20076;-75
2023/08/29 01:07:15;;;;;;;1.23;0.43;;;;;;;;;;6275070;28;20040;-75
2023/08/29 01:10:17;;;;;;;1.10;0.40;;;;;;;;;;6275126;28;20052;-75
2023/08/29 01:13:26;;;;;;;0.95;0.57;;;;;;;;;;6272120;28;20326;-76
2023/08/29 01:16:35;;;;;;;0.98;0.47;;;;;;;;;;6271237;28;20045;-76
2023/08/29 01:19:40;;;;;;;0.40;0.20;;;;;;;;;;6274467;28;20049;-77
2023/08/29 01:22:53;;;;;;;1.27;0.30;;;;;;;;;;6275052;28;20102;-76
2023/08/29 01:26:07;;;;;;;1.52;0.30;;;;;;;;;;6274590;28;20057;-75
2023/08/29 01:29:09;;;;;;;1.20;0.52;;;;;;;;;;6272591;28;20234;-76
2023/08/29 01:32:12;;;;;;;0.70;0.50;;;;;;;;;;6273451;28;20057;-77
2023/08/29 01:35:15;;;;;;;0.73;0.40;;;;;;;;;;6277726;28;20049;-75
2023/08/29 01:38:18;;;;;;;1.10;0.52;;;;;;;;;;6275246;28;20507;-75
2023/08/29 01:41:21;;;;;;;1.08;0.43;;;;;;;;;;6272896;28;20071;-75
2023/08/29 01:44:22;;;;;;;2.78;0.70;;;;;;;;;;6271893;28;20049;-75
2023/08/29 01:47:24;;;;;;;1.00;0.60;;;;;;;;;;6275208;28;20044;-76
2023/08/29 01:50:27;;;;;;;2.40;0.47;;;;;;;;;;6270524;28;20048;-75
2023/08/29 01:53:28;;;;;;;2.55;0.93;;;;;;;;;;6271603;28;20076;-75
2023/08/29 01:56:33;;;;;;;2.00;0.57;;;;;;;;;;6272480;28;20061;-76
2023/08/29 01:59:35;;;;;;;2.58;0.73;;;;;;;;;;6274956;28;20390;-76
2023/08/29 02:02:36;;;;;;;1.73;0.40;;;;;;;;;;6271992;28;20375;-76
2023/08/29 02:05:39;;;;;;;1.95;0.60;;;;;;;;;;6272828;28;20053;-76
2023/08/29 02:08:41;;;;;;;0.88;0.50;;;;;;;;;;6275102;28;20052;-75
2023/08/29 02:11:44;;;;;;;1.23;0.63;;;;;;;;;;6271000;28;20053;-74
2023/08/29 02:14:46;;;;;;;1.20;0.60;;;;;;;;;;6270958;28;20045;-77
2023/08/29 02:17:47;;;;;;;2.95;0.60;;;;;;;;;;6271464;28;20057;-75
2023/08/29 02:20:49;;;;;;;0.88;0.40;;;;;;;;;;6270355;28;20052;-76
2023/08/29 02:23:51;;;;;;;0.82;0.80;;;;;;;;;;6268818;28;20053;-75
2023/08/29 02:26:54;;;;;;;3.85;0.52;;;;;;;;;;6274480;28;20040;-75
2023/08/29 02:29:56;;;;;;;0.90;0.50;;;;;;;;;;6272406;28;20222;-75
2023/08/29 02:32:57;;;;;;;3.88;0.98;;;;;;;;;;6269496;28;20060;-74
2023/08/29 02:35:59;;;;;;;0.90;0.43;;;;;;;;;;6270903;28;20462;-74
2023/08/29 02:39:01;;;;;;;1.55;0.70;;;;;;;;;;6272453;28;20118;-77
2023/08/29 02:42:04;;;;;;;0.25;0.25;;;;;;;;;;6270376;28;20056;-75
2023/08/29 02:45:07;;;;;;;1.63;0.50;;;;;;;;;;6271708;28;20218;-74
2023/08/29 02:48:09;;;;;;;2.90;0.60;;;;;;;;;;6270353;28;20057;-74
2023/08/29 02:51:11;;;;;;;1.98;0.50;;;;;;;;;;6264371;28;20049;-74
2023/08/29 02:54:13;;;;;;;1.80;0.50;;;;;;;;;;6270230;28;20258;-74
2023/08/29 02:57:16;;;;;;;1.40;0.63;;;;;;;;;;6272544;28;20060;-75
2023/08/29 03:00:18;;;;;;;5.22;1.00;;;;;;;;;;6267873;28;20079;-74
2023/08/29 03:03:20;;;;;;;2.03;0.50;;;;;;;;;;6269697;28;20044;-75
2023/08/29 03:06:22;;;;;;;1.00;0.52;;;;;;;;;;6269702;28;20237;-77
2023/08/29 03:09:24;;;;;;;0.50;0.40;;;;;;;;;;6273425;28;20059;-78
2023/08/29 03:12:27;;;;;;;0.98;0.60;;;;;;;;;;6271009;28;20060;-76
2023/08/29 03:15:32;;;;;;;2.38;0.70;;;;;;;;;;6269404;28;20049;-76
2023/08/29 03:18:34;;;;;;;2.65;0.75;;;;;;;;;;6271328;28;20053;-76
2023/08/29 03:21:36;;;;;;;1.67;0.45;;;;;;;;;;6272440;28;20048;-76
2023/08/29 03:24:37;;;;;;;2.90;0.70;;;;;;;;;;6271553;28;20057;-76
2023/08/29 03:27:40;;;;;;;1.33;0.50;;;;;;;;;;6272259;28;20056;-77
2023/08/29 03:30:42;;;;;;;2.33;0.60;;;;;;;;;;6270479;28;20045;-75
2023/08/29 03:33:44;;;;;;;1.30;0.40;;;;;;;;;;6268344;28;20057;-76
2023/08/29 03:36:46;;;;;;;0.90;0.50;;;;;;;;;;6268830;28;20065;-76
2023/08/29 03:39:48;;;;;;;2.08;0.50;;;;;;;;;;6270143;28;20103;-76
2023/08/29 03:42:51;;;;;;;1.20;0.30;;;;;;;;;;6271421;28;20242;-76
2023/08/29 03:45:56;;;;;;;0.45;0.25;;;;;;;;;;6273562;28;20048;-75
2023/08/29 03:48:59;;;;;;;1.33;0.50;;;;;;;;;;6272144;28;20049;-75
2023/08/29 03:52:01;;;;;;;1.23;0.60;;;;;;;;;;6270609;28;20073;-75
2023/08/29 03:55:03;;;;;;;1.83;0.70;;;;;;;;;;6279278;28;20329;-77
2023/08/29 03:58:06;;;;;;;3.25;0.77;;;;;;;;;;6278230;28;20073;-75
2023/08/29 04:01:09;;;;;;;2.40;0.65;;;;;;;;;;6277965;28;20054;-76
2023/08/29 04:04:11;;;;;;;2.70;0.83;;;;;;;;;;6276490;28;20110;-75
2023/08/29 04:07:12;;;;;;;3.30;0.60;;;;;;;;;;6275370;28;21049;-75
2023/08/29 04:10:14;;;;;;;1.13;0.70;;;;;;;;;;6274811;28;20061;-76
2023/08/29 04:13:17;;;;;;;2.15;0.50;;;;;;;;;;6276581;28;20055;-75
2023/08/29 04:16:19;;;;;;;1.75;0.35;;;;;;;;;;6274003;28;20053;-77
2023/08/29 04:19:21;;;;;;;0.40;0.35;;;;;;;;;;6275056;28;20072;-76
2023/08/29 04:22:23;;;;;;;0.68;0.20;;;;;;;;;;6276447;28;20061;-76
2023/08/29 04:25:26;;;;;;;0.65;0.40;;;;;;;;;;6277479;28;20051;-75
2023/08/29 04:28:30;;;;;;;2.08;0.20;;;;;;;;;;6271333;28;20167;-75
2023/08/29 04:31:31;;;;;;;1.00;0.40;;;;;;;;;;6273001;28;20099;-76
2023/08/29 04:34:33;;;;;;;1.08;0.30;;;;;;;;;;6273841;28;20238;-76
2023/08/29 04:37:36;;;;;;;2.78;0.40;;;;;;;;;;6276744;28;20053;-76
2023/08/29 04:40:38;;;;;;;1.60;0.52;;;;;;;;;;6275232;28;20052;-76
2023/08/29 04:43:41;;;;;;;1.88;0.32;;;;;;;;;;6273425;28;20048;-75
2023/08/29 04:46:42;;;;;;;1.27;0.30;;;;;;;;;;6272258;28;20086;-76
2023/08/29 04:49:44;;;;;;;0.50;0.20;;;;;;;;;;6275999;28;20656;-75
2023/08/29 04:52:48;;;;;;;0.10;0.10;;;;;;;;;;6276491;28;20229;-75
2023/08/29 04:55:50;;;;;;;0.40;0.20;;;;;;;;;;6275047;28;20118;-75
2023/08/29 04:58:53;;;;;;;0.75;0.20;;;;;;;;;;6270357;28;20041;-76
2023/08/29 05:01:55;;;;;;;0.15;0.10;;;;;;;;;;6271392;28;20053;-76
2023/08/29 05:04:57;;;;;;;2.03;0.35;;;;;;;;;;6274362;28;20052;-75
2023/08/29 05:07:59;;;;;;;3.90;0.28;;;;;;;;;;6271560;28;20069;-75
2023/08/29 05:11:01;;;;;;;0.40;0.30;;;;;;;;;;6272157;28;20053;-78
2023/08/29 05:14:04;;;;;;;0.40;0.13;;;;;;;;;;6270402;28;20060;-76
2023/08/29 05:17:06;;;;;;;1.02;0.45;;;;;;;;;;6277054;28;20053;-77
2023/08/29 05:20:09;;;;;;;0.22;0.13;;;;;;;;;;6273564;28;20264;-76
2023/08/29 05:23:11;;;;;;;0.80;0.30;;;;;;;;;;6274278;28;20076;-76
2023/08/29 05:26:13;;;;;;;0.22;0.10;;;;;;;;;;6271095;28;20049;-76
2023/08/29 05:29:16;;;;;;;1.33;0.50;;;;;;;;;;6270833;28;20065;-77
2023/08/29 05:32:18;;;;;;;0.45;0.30;;;;;;;;;;6275899;28;20056;-76
2023/08/29 05:35:20;;;;;;;0.93;0.20;;;;;;;;;;6270795;28;20068;-76
2023/08/29 05:38:25;;;;;;;0.47;0.30;;;;;;;;;;6271938;28;20049;-77
2023/08/29 05:41:29;;;;;;;2.30;0.40;;;;;;;;;;6268731;28;20068;-76
2023/08/29 05:44:32;;;;;;;0.88;0.40;;;;;;;;;;6273131;28;20068;-75
2023/08/29 05:47:34;;;;;;;0.60;0.20;;;;;;;;;;6272878;28;20053;-74
2023/08/29 05:50:36;;;;;;;0.47;0.30;;;;;;;;;;6271279;28;20057;-75
2023/08/29 05:53:38;;;;;;;1.05;0.25;;;;;;;;;;6275058;28;20049;-74
2023/08/29 05:56:39;;;;;;;0.43;0.20;;;;;;;;;;6274899;28;20049;-77
2023/08/29 05:59:42;;;;;;;2.08;0.63;;;;;;;;;;6249490;28;20321;-75
2023/08/29 06:02:45;;;;;;;2.88;0.85;;;;;;;;;;6270543;28;20228;-74
2023/08/29 06:05:49;;;;;;;3.00;0.40;;;;;;;;;;6269889;28;20045;-75
2023/08/29 06:08:51;;;;;;;2.55;0.50;;;;;;;;;;6273543;28;20053;-75
2023/08/29 06:11:52;;;;;;;1.45;0.50;;;;;;;;;;6272855;28;20052;-75
2023/08/29 06:14:56;;;;;;;1.20;0.40;;;;;;;;;;6272867;28;20051;-75
2023/08/29 06:17:57;;;;;;;2.03;0.47;;;;;;;;;;6274323;28;20053;-75
2023/08/29 06:20:59;;;;;;;1.85;0.45;;;;;;;;;;6278883;28;20142;-76
2023/08/29 06:24:01;;;;;;;1.00;0.55;;;;;;;;;;6271038;28;20230;-75
2023/08/29 06:27:03;;;;;;;1.33;0.45;;;;;;;;;;6272275;28;20049;-76
2023/08/29 06:30:08;;;;;;;2.10;0.70;;;;;;;;;;6270168;28;20071;-75
2023/08/29 06:33:10;;;;;;;1.92;0.63;;;;;;;;;;6271061;28;20253;-77
2023/08/29 06:36:11;;;;;;;2.33;0.80;;;;;;;;;;6270741;28;20321;-75
2023/08/29 06:39:13;;;;;;;1.67;0.70;;;;;;;;;;6269633;28;20071;-76
2023/08/29 06:42:15;;;;;;;2.85;0.88;;;;;;;;;;6276455;28;20063;-75
2023/08/29 06:45:18;;;;;;;3.47;0.80;;;;;;;;;;6270472;28;20063;-75
2023/08/29 06:48:19;;;;;;;6.03;1.02;;;;;;;;;;6271269;28;20371;-75
2023/08/29 06:51:21;;;;;;;3.25;1.00;;;;;;;;;;6270805;28;20060;-75
2023/08/29 06:54:23;;;;;;;1.35;0.68;;;;;;;;;;6275952;28;20049;-75
2023/08/29 06:57:26;;;;;;;1.42;0.80;;;;;;;;;;6271401;28;20048;-76
2023/08/29 07:00:29;;;;;;;4.40;1.00;;;;;;;;;;6271688;28;20048;-75
2023/08/29 07:03:31;;;;;;;3.90;1.05;;;;;;;;;;6271693;28;20056;-76
2023/08/29 07:06:32;;;;;;;4.43;1.00;;;;;;;;;;6272182;28;20045;-76
2023/08/29 07:09:35;;;;;;;2.63;0.95;;;;;;;;;;6270270;28;20064;-76
2023/08/29 07:12:37;;;;;;;4.03;0.90;;;;;;;;;;6270744;28;20057;-76
2023/08/29 07:15:40;;;;;;;1.73;0.68;;;;;;;;;;6270851;28;20067;-75
2023/08/29 07:18:42;;;;;;;2.15;0.70;;;;;;;;;;6272524;28;20056;-75
2023/08/29 07:21:44;;;;;;;1.65;0.77;;;;;;;;;;6269946;28;20044;-77
2023/08/29 07:24:46;;;;;;;3.45;1.20;;;;;;;;;;6269329;28;20052;-75
2023/08/29 07:27:48;;;;;;;2.83;0.90;;;;;;;;;;6272554;28;20052;-78
2023/08/29 07:30:51;;;;;;;4.20;1.02;;;;;;;;;;6274699;28;20107;-75
2023/08/29 07:33:53;;;;;;;2.97;0.90;;;;;;;;;;6273953;28;20052;-75
2023/08/29 07:36:55;;;;;;;1.38;0.50;;;;;;;;;;6274323;28;20364;-75
2023/08/29 07:39:56;;;;;;;1.58;0.70;;;;;;;;;;6276419;28;20040;-77
2023/08/29 07:42:58;;;;;;;1.20;0.63;;;;;;;;;;6278293;28;20056;-75
2023/08/29 07:46:01;;;;;;;2.42;0.80;;;;;;;;;;6277297;28;20071;-75
2023/08/29 07:49:09;;;;;;;2.72;0.60;;;;;;;;;;6274130;28;20328;-75
2023/08/29 07:52:11;;;;;;;1.50;0.50;;;;;;;;;;6276827;28;20608;-75
2023/08/29 07:55:12;;;;;;;3.17;0.57;;;;;;;;;;6279103;28;20500;-78
2023/08/29 07:58:14;;;;;;;1.67;0.52;;;;;;;;;;6273252;28;20059;-76
2023/08/29 08:01:18;;;;;;;2.75;0.50;;;;;;;;;;6275810;28;20060;-75
2023/08/29 08:04:20;;;;;;;1.58;0.50;;;;;;;;;;6276475;28;20328;-76
2023/08/29 08:07:22;;;;;;;1.20;0.50;;;;;;;;;;6276276;28;20341;-75
2023/08/29 08:10:23;;;;;;;4.07;0.40;;;;;;;;;;6272964;28;20077;-75
2023/08/29 08:13:28;;;;;;;1.30;0.65;;;;;;;;;;6275655;28;20391;-76
2023/08/29 08:16:31;;;;;;;1.95;0.57;;;;;;;;;;6274703;28;20146;-77
2023/08/29 08:19:33;;;;;;;1.08;0.60;;;;;;;;;;6274817;28;20137;-75
2023/08/29 08:22:35;;;;;;;2.05;0.57;;;;;;;;;;6275440;28;20134;-76
2023/08/29 08:25:37;;;;;;;3.17;1.00;;;;;;;;;;6276328;28;20076;-75
2023/08/29 08:28:40;;;;;;;4.57;1.00;;;;;;;;;;6272298;28;20052;-76
2023/08/29 08:31:43;;;;;;;2.13;1.08;;;;;;;;;;6276128;28;20056;-76
2023/08/29 08:34:47;;;;;;;3.65;0.65;;;;;;;;;;6277715;28;20064;-76
2023/08/29 08:37:49;;;;;;;6.80;0.52;;;;;;;;;;6276894;28;20363;-76
2023/08/29 08:40:50;;;;;;;0.90;0.50;;;;;;;;;;6275471;28;20241;-77
2023/08/29 08:43:52;;;;;;;4.78;0.73;;;;;;;;;;6276316;28;20053;-76
2023/08/29 08:46:55;;;;;;;3.42;0.70;;;;;;;;;;6273057;28;20049;-76
2023/08/29 08:49:57;;;;;;;3.42;0.70;;;;;;;;;;6275893;28;20310;-76
2023/08/29 08:53:02;;;;;;;2.58;0.80;;;;;;;;;;6272432;28;20116;-76
2023/08/29 08:56:04;;;;;;;4.03;0.70;;;;;;;;;;6272906;28;20203;-78
2023/08/29 08:59:05;;;;;;;2.63;0.60;;;;;;;;;;6274888;28;20052;-76
2023/08/29 09:02:11;;;;;;;3.75;0.68;;;;;;;;;;6274074;28;20068;-76
2023/08/29 09:05:12;;;;;;;2.00;0.65;;;;;;;;;;6273956;28;20056;-78
2023/08/29 09:08:14;;;;;;;1.35;0.80;;;;;;;;;;6274421;28;20175;-76
2023/08/29 09:11:18;;;;;;;3.75;0.90;;;;;;;;;;6278332;28;20061;-76
2023/08/29 09:14:20;;;;;;;2.00;0.82;;;;;;;;;;6275497;28;20053;-76
2023/08/29 09:17:24;;;;;;;2.35;0.77;;;;;;;;;;6272313;28;20261;-76
2023/08/29 09:20:29;;;;;;;3.53;0.57;;;;;;;;;;6273861;28;20088;-76
2023/08/29 09:23:39;;;;;;;4.95;1.25;;;;;;;;;;6275900;28;20049;-76
2023/08/29 09:26:41;;;;;;;4.28;1.08;;;;;;;;;;6276412;28;20253;-76
2023/08/29 09:29:43;;;;;;;3.88;0.70;;;;;;;;;;6270847;28;20340;-76
2023/08/29 09:32:48;;;;;;;3.05;0.65;;;;;;;;;;6271804;28;20053;-76
2023/08/29 09:35:51;;;;;;;2.30;0.60;;;;;;;;;;6279871;28;20053;-76
2023/08/29 09:38:53;;;;;;;2.53;0.80;;;;;;;;;;6277137;28;20057;-76
2023/08/29 09:42:03;;;;;;;3.92;0.88;;;;;;;;;;6273289;28;20049;-76
2023/08/29 09:45:08;;;;;;;1.63;0.63;;;;;;;;;;6272938;28;20053;-77
2023/08/29 09:48:11;;;;;;;1.95;0.60;;;;;;;;;;6272200;28;20049;-76
2023/08/29 09:51:13;;;;;;;2.30;0.70;;;;;;;;;;6274100;28;20054;-76
2023/08/29 09:54:19;;;;;;;1.58;0.70;;;;;;;;;;6262630;28;20091;-76
2023/08/29 09:57:24;;;;;;;1.65;0.82;;;;;;;;;;6271878;28;20053;-78
2023/08/29 10:00:26;;;;;;;2.60;1.00;;;;;;;;;;6272243;28;20053;-77
2023/08/29 10:03:30;;;;;;;7.10;1.10;;;;;;;;;;6271650;28;20048;-76
2023/08/29 10:06:32;;;;;;;2.60;0.90;;;;;;;;;;6269306;28;20061;-76
2023/08/29 10:09:33;;;;;;;1.80;0.80;;;;;;;;;;6268092;28;20088;-77
2023/08/29 10:12:36;;;;;;;1.98;0.70;;;;;;;;;;6276161;28;20054;-76
2023/08/29 10:15:37;;;;;;;1.17;0.63;;;;;;;;;;6272912;28;20077;-78
2023/08/29 10:18:41;;;;;;;1.10;0.50;;;;;;;;;;6270984;28;20073;-78
2023/08/29 10:21:43;;;;;;;;;;;;;;;;;;6273639;28;20048;-76
2023/08/29 10:24:46;;;;;;;1.55;0.75;;;;;;;;;;6272489;28;20008;-76
2023/08/29 10:27:48;;;;;;;0.88;0.50;;;;;;;;;;6271764;28;20088;-76
2023/08/29 10:30:53;;;;;;;4.25;0.82;;;;;;;;;;6270208;28;20091;-77
2023/08/29 10:33:57;;;;;;;1.77;0.73;;;;;;;;;;6271299;28;20062;-77
2023/08/29 10:36:59;;;;;;;4.53;1.00;;;;;;;;;;6273023;28;20061;-76
2023/08/29 10:40:12;;;;;;;4.70;0.90;;;;;;;;;;6272880;28;20056;-77
2023/08/29 10:43:18;;;;;;;3.40;0.82;;;;;;;;;;6273785;28;20459;-76
2023/08/29 10:46:21;;;;;;;3.28;0.95;;;;;;;;;;6271350;28;20098;-76
2023/08/29 10:49:24;;;;;;;1.50;1.00;;;;;;;;;;6272734;28;20659;-77
2023/08/29 10:52:34;;;;;;;1.73;0.80;;;;;;;;;;6270739;28;20268;-76
2023/08/29 10:55:41;;;;;;;2.67;0.90;;;;;;;;;;6267175;28;20305;-77
2023/08/29 10:58:44;;;;;;;2.33;0.80;;;;;;;;;;6270294;28;20076;-76
2023/08/29 11:01:46;;;;;;;1.70;0.82;;;;;;;;;;6271260;28;20118;-78
2023/08/29 11:04:51;;;;;;;3.28;0.98;;;;;;;;;;6272095;28;20063;-76
2023/08/29 11:07:53;;;;;;;1.90;0.70;;;;;;;;;;6272229;28;20048;-76
2023/08/29 11:11:16;;;;;;;2.30;0.80;;;;;;;;;;6272810;28;20057;-77
2023/08/29 11:14:20;;;;;;;1.90;0.77;;;;;;;;;;6252552;28;20057;-77
2023/08/29 11:17:26;;;;;;;1.40;0.70;;;;;;;;;;6243275;28;20061;-76
2023/08/29 11:20:32;;;;;;;2.00;1.25;;;;;;;;;;6243086;28;20049;-77
2023/08/29 11:23:36;;;;;;;2.83;0.75;;;;;;;;;;6265112;28;20060;-76
2023/08/29 11:26:40;;;;;;;6.30;0.88;;;;;;;;;;6273062;28;20049;-76
2023/08/29 11:29:42;;;;;;;5.07;0.80;;;;;;;;;;6269700;28;20049;-76
2023/08/29 11:32:50;;;;;;;1.60;0.52;;;;;;;;;;6272575;28;20110;-77
2023/08/29 11:35:56;;;;;;;1.88;0.55;;;;;;;;;;6272727;28;20233;-77
2023/08/29 11:38:58;;;;;;;2.00;0.70;;;;;;;;;;6272004;28;20140;-76
2023/08/29 11:42:00;;;;;;;2.60;0.50;;;;;;;;;;6271790;28;20223;-76
2023/08/29 11:45:05;;;;;;;2.05;0.77;;;;;;;;;;6269533;28;20124;-78
2023/08/29 11:48:08;;;;;;;1.67;0.60;;;;;;;;;;6272061;28;20076;-76
2023/08/29 11:51:11;;;;;;;3.17;0.60;;;;;;;;;;6271641;28;20057;-76
2023/08/29 11:54:37;;;;;;;1.65;0.50;;;;;;;;;;6272488;28;20047;-76
2023/08/29 11:57:44;;;;;;;1.05;0.40;;;;;;;;;;6272245;28;20052;-76
2023/08/29 12:00:48;;;;;;;0.55;0.45;;;;;;;;;;6269421;28;20071;-76
2023/08/29 12:03:50;;;;;;;0.93;0.40;;;;;;;;;;6271890;28;20333;-77
2023/08/29 12:07:05;;;;;;;1.58;0.30;;;;;;;;;;6273597;28;20057;-77
2023/08/29 12:10:09;;;;;;;1.10;0.40;;;;;;;;;;6272674;28;21340;-76
2023/08/29 12:13:11;;;;;;;;;;;;;;;;;;6271373;28;20053;-76
2023/08/29 12:16:17;;;;;;;0.90;0.30;;;;;;;;;;6272341;28;20231;-77
2023/08/29 12:19:19;;;;;;;0.85;0.40;;;;;;;;;;6275384;28;20065;-76
2023/08/29 12:22:29;;;;;;;0.43;0.30;;;;;;;;;;6272977;28;20045;-78
2023/08/29 12:25:31;;;;;;;2.03;0.50;;;;;;;;;;6275792;28;20061;-79
2023/08/29 12:28:33;;;;;;;2.10;0.73;;;;;;;;;;6275062;28;20049;-77
2023/08/29 12:31:34;;;;;;;0.85;0.40;;;;;;;;;;6274925;28;20042;-77
2023/08/29 12:34:37;;;;;;;1.65;0.55;;;;;;;;;;6275437;28;20057;-77
2023/08/29 12:37:40;;;;;;;1.10;0.70;;;;;;;;;;6273182;28;20058;-77
2023/08/29 12:40:43;;;;;;;2.42;0.60;;;;;;;;;;6273245;28;20052;-77
2023/08/29 12:43:44;;;;;;;2.60;0.60;;;;;;;;;;6273122;28;20057;-78
2023/08/29 12:46:46;;;;;;;2.00;0.40;;;;;;;;;;6274950;28;20060;-77
2023/08/29 12:49:48;;;;;;;2.92;0.50;;;;;;;;;;6276440;28;20060;-78
2023/08/29 12:52:51;;;;;;;2.05;0.40;;;;;;;;;;6276810;28;20080;-77
2023/08/29 12:55:53;;;;;;;1.52;0.60;;;;;;;;;;6273555;28;20086;-77
2023/08/29 12:58:55;;;;;;;0.70;0.25;;;;;;;;;;6272191;28;20242;-77
2023/08/29 13:01:57;;;;;;;0.88;0.30;;;;;;;;;;6270609;28;20065;-78
2023/08/29 13:04:58;;;;;;;0.63;0.38;;;;;;;;;;6274593;28;20147;-77
2023/08/29 13:08:02;;;;;;;1.80;0.52;;;;;;;;;;6274358;28;20053;-77
2023/08/29 13:11:04;;;;;;;3.13;0.45;;;;;;;;;;6275704;28;20067;-77
2023/08/29 13:14:07;;;;;;;3.60;0.40;;;;;;;;;;6276118;28;20064;-78
2023/08/29 13:17:08;;;;;;;1.63;0.40;;;;;;;;;;6278616;28;20048;-77
2023/08/29 13:20:10;;;;;;;1.40;0.30;;;;;;;;;;6272362;28;20053;-77
2023/08/29 13:23:13;;;;;;;1.75;0.40;;;;;;;;;;6273658;28;20102;-77
2023/08/29 13:26:15;;;;;;;1.30;0.40;;;;;;;;;;6272421;28;20061;-77
2023/08/29 13:29:17;;;;;;;0.82;0.40;;;;;;;;;;6275548;28;20065;-76
2023/08/29 13:32:18;;;;;;;1.75;0.43;;;;;;;;;;6275716;28;20095;-77
2023/08/29 13:35:20;;;;;;;7.78;0.40;;;;;;;;;;6277269;28;20072;-77
2023/08/29 13:38:23;;;;;;;1.48;0.32;;;;;;;;;;6276035;28;20053;-77
2023/08/29 13:41:25;;;;;;;;;;;;;;;;;;6273282;28;20056;-78
2023/08/29 13:44:26;;;;;;;0.40;0.30;;;;;;;;;;6273896;28;19928;-78
2023/08/29 13:47:28;;;;;;;0.70;0.43;;;;;;;;;;6271870;28;20240;-77
2023/08/29 13:50:30;;;;;;;0.47;0.38;;;;;;;;;;6273604;28;20094;-77
2023/08/29 13:53:33;;;;;;;4.38;0.40;;;;;;;;;;6274930;28;20053;-78
2023/08/29 13:56:34;;;;;;;;;;;;;;;;;;6274423;28;20153;-77
2023/08/29 13:59:36;;;;;;;3.20;0.52;;;;;;;;;;6275118;28;19917;-78
2023/08/29 14:02:39;;;;;;;0.90;0.20;;;;;;;;;;6273297;28;20052;-77
2023/08/29 14:05:40;;;;;;;;;;;;;;;;;;6275535;28;20321;-78
2023/08/29 14:08:44;;;;;;;1.52;0.30;;;;;;;;;;6272208;28;19978;-77
2023/08/29 14:11:45;;;;;;;1.75;0.30;;;;;;;;;;6273508;28;20062;-77
2023/08/29 14:14:47;;;;;;;1.70;0.40;;;;;;;;;;6272889;28;20317;-77
2023/08/29 14:17:50;;;;;;;0.30;0.30;;;;;;;;;;6250012;28;20388;-77
2023/08/29 14:20:52;;;;;;;0.77;0.40;;;;;;;;;;6271214;28;20060;-77
2023/08/29 14:23:55;;;;;;;1.13;0.28;;;;;;;;;;6272193;28;20046;-77
2023/08/29 14:26:56;;;;;;;;;;;;;;;;;;6272018;28;20059;-77
2023/08/29 14:29:58;;;;;;;2.40;0.30;;;;;;;;;;6273046;28;19924;-77
2023/08/29 14:33:00;;;;;;;0.93;0.30;;;;;;;;;;6273620;28;20049;-77
2023/08/29 14:36:03;;;;;;;1.25;0.38;;;;;;;;;;6274453;28;20212;-78
2023/08/29 14:39:06;;;;;;;;;;;;;;;;;;6275625;28;20280;-77
2023/08/29 14:42:08;;;;;;;2.70;0.30;;;;;;;;;;6276042;28;19936;-77
2023/08/29 14:45:11;;;;;;;3.80;0.68;;;;;;;;;;6271384;28;20056;-77
2023/08/29 14:48:12;;;;;;;2.83;0.30;;;;;;;;;;6273260;28;20094;-77
2023/08/29 14:51:14;;;;;;;0.98;0.40;;;;;;;;;;6274392;28;20091;-77
2023/08/29 14:54:17;;;;;;;1.13;0.40;;;;;;;;;;6274578;28;20056;-77
2023/08/29 14:57:21;;;;;;;0.43;0.30;;;;;;;;;;6272854;28;20063;-77
2023/08/29 15:00:24;;;;;;;0.50;0.30;;;;;;;;;;6273078;28;20077;-78
2023/08/29 15:03:26;;;;;;;0.82;0.35;;;;;;;;;;6271470;28;20056;-77
2023/08/29 15:06:27;;;;;;;1.60;0.43;;;;;;;;;;6272359;28;20207;-77
2023/08/29 15:09:30;;;;;;;1.48;0.32;;;;;;;;;;6273511;28;20060;-77
2023/08/29 15:12:32;;;;;;;0.68;0.40;;;;;;;;;;6269384;28;20098;-77
2023/08/29 15:15:37;;;;;;;1.80;0.50;;;;;;;;;;6273862;28;20048;-77
2023/08/29 15:18:38;;;;;;;2.35;0.35;;;;;;;;;;6271730;28;20095;-77
2023/08/29 15:21:40;;;;;;;0.77;0.45;;;;;;;;;;6272270;28;20059;-77
2023/08/29 15:24:43;;;;;;;1.83;0.50;;;;;;;;;;6272376;28;20057;-77
2023/08/29 15:27:45;;;;;;;0.95;0.28;;;;;;;;;;6270548;28;20080;-77
2023/08/29 15:30:47;;;;;;;1.75;0.45;;;;;;;;;;6268088;28;20053;-78
2023/08/29 15:33:48;;;;;;;1.30;0.40;;;;;;;;;;6270064;28;20210;-78
2023/08/29 15:36:51;;;;;;;1.48;0.77;;;;;;;;;;6273869;28;21140;-77
2023/08/29 15:39:54;;;;;;;0.88;0.32;;;;;;;;;;6269807;28;20064;-77
2023/08/29 15:42:56;;;;;;;0.75;0.28;;;;;;;;;;6270459;28;20052;-77
2023/08/29 15:45:58;;;;;;;2.30;0.45;;;;;;;;;;6269693;28;20257;-78
2023/08/29 15:48:59;;;;;;;0.68;0.40;;;;;;;;;;6273420;28;20040;-78
2023/08/29 15:52:01;;;;;;;0.28;0.28;;;;;;;;;;6276596;28;20056;-77
2023/08/29 15:55:05;;;;;;;1.05;0.47;;;;;;;;;;6276390;28;20052;-77
2023/08/29 15:58:08;;;;;;;1.08;0.40;;;;;;;;;;6275218;28;20069;-77
2023/08/29 16:01:10;;;;;;;0.40;0.20;;;;;;;;;;6274028;28;20049;-77
2023/08/29 16:04:12;;;;;;;0.98;0.30;;;;;;;;;;6276390;28;20077;-78
2023/08/29 16:07:13;;;;;;;3.73;0.63;;;;;;;;;;6279019;28;20052;-77
2023/08/29 16:10:17;;;;;;;0.68;0.40;;;;;;;;;;6276092;28;20107;-76
2023/08/29 16:13:19;;;;;;;2.17;0.70;;;;;;;;;;6273586;28;20053;-77
2023/08/29 16:16:20;;;;;;;2.50;0.57;;;;;;;;;;6270331;28;20364;-77
2023/08/29 16:19:22;;;;;;;2.05;0.85;;;;;;;;;;6276491;28;20057;-77
2023/08/29 16:22:24;;;;;;;1.52;0.40;;;;;;;;;;6273074;28;20171;-77
2023/08/29 16:25:29;;;;;;;1.48;0.40;;;;;;;;;;6276973;28;20049;-77
2023/08/29 16:28:30;;;;;;;0.70;0.40;;;;;;;;;;6278229;28;20059;-77
2023/08/29 16:31:32;;;;;;;1.42;0.43;;;;;;;;;;6276549;28;20095;-77
2023/08/29 16:34:34;;;;;;;0.77;0.40;;;;;;;;;;6276659;28;20550;-76
2023/08/29 16:37:37;;;;;;;2.08;0.70;;;;;;;;;;6279114;28;20317;-77
2023/08/29 16:40:40;;;;;;;1.00;0.43;;;;;;;;;;6274853;28;20276;-77
2023/08/29 16:43:42;;;;;;;2.83;0.40;;;;;;;;;;6273915;28;20107;-77
2023/08/29 16:46:43;;;;;;;1.63;0.32;;;;;;;;;;6272904;28;20048;-79
2023/08/29 16:49:45;;;;;;;1.55;0.38;;;;;;;;;;6273756;28;20051;-77
2023/08/29 16:52:47;;;;;;;2.30;0.20;;;;;;;;;;6275125;28;20288;-76
2023/08/29 16:55:50;;;;;;;1.55;0.30;;;;;;;;;;6273328;28;20061;-77
2023/08/29 16:58:52;;;;;;;;;;;;;;;;;;6274957;28;20056;-77
2023/08/29 17:01:54;;;;;;;1.05;0.32;;;;;;;;;;6272089;28;19929;-78
2023/08/29 17:04:56;;;;;;;1.48;0.50;;;;;;;;;;6272884;28;20337;-78
2023/08/29 17:07:58;;;;;;;0.70;0.28;;;;;;;;;;6275936;28;20063;-77
2023/08/29 17:11:01;;;;;;;0.57;0.30;;;;;;;;;;6273393;28;20053;-76
2023/08/29 17:14:03;;;;;;;1.00;0.50;;;;;;;;;;6268919;28;20146;-78
2023/08/29 17:17:05;;;;;;;1.20;0.45;;;;;;;;;;6273558;28;20309;-78
2023/08/29 17:20:07;;;;;;;2.28;0.43;;;;;;;;;;6273318;28;20064;-76
2023/08/29 17:23:09;;;;;;;2.47;0.57;;;;;;;;;;6269513;28;20190;-75
2023/08/29 17:26:12;;;;;;;1.58;0.60;;;;;;;;;;6272974;28;20324;-76
2023/08/29 17:29:14;;;;;;;1.33;0.50;;;;;;;;;;6276200;28;20053;-75
2023/08/29 17:32:17;;;;;;;0.90;0.57;;;;;;;;;;6272332;28;20344;-76
2023/08/29 17:35:19;;;;;;;0.73;0.50;;;;;;;;;;6274709;28;20064;-75
2023/08/29 17:38:21;;;;;;;0.95;0.52;;;;;;;;;;6273502;28;20472;-78
2023/08/29 17:41:25;;;;;;;1.20;0.45;;;;;;;;;;6269633;28;20049;-74
2023/08/29 17:44:27;;;;;;;0.80;0.50;;;;;;;;;;6274064;28;20053;-75
2023/08/29 17:47:29;;;;;;;1.20;0.50;;;;;;;;;;6270980;28;20320;-74
2023/08/29 17:50:31;;;;;;;0.95;0.50;;;;;;;;;;6271179;28;20108;-75
2023/08/29 17:53:33;;;;;;;0.52;0.35;;;;;;;;;;6273284;28;20147;-76
2023/08/29 17:56:36;;;;;;;1.55;0.43;;;;;;;;;;6275269;28;20056;-75
2023/08/29 17:59:37;;;;;;;1.00;0.50;;;;;;;;;;6270347;28;20053;-76
2023/08/29 18:02:40;;;;;;;2.67;0.47;;;;;;;;;;6270470;28;20045;-77
2023/08/29 18:05:47;;;;;;;0.60;0.35;;;;;;;;;;6273117;28;20286;-78
2023/08/29 18:08:50;;;;;;;0.90;0.30;;;;;;;;;;6271072;28;20058;-79
2023/08/29 18:11:53;;;;;;;0.52;0.40;;;;;;;;;;6271459;28;20057;-77
2023/08/29 18:14:55;;;;;;;1.55;0.60;;;;;;;;;;6269678;28;20053;-78
2023/08/29 18:17:59;;;;;;;4.82;2.25;;;;;;;;;;6269065;28;20045;-78